createdAt,value
2022-09-27T00:02:26.201Z,55.16
2022-09-27T00:04:55.873Z,55.84
2022-09-27T00:07:25.573Z,56.43
2022-09-27T00:09:53.954Z,56.57
2022-09-27T00:12:22.253Z,56.42
2022-09-27T00:14:50.625Z,56.05
2022-09-27T00:17:19.933Z,56.50
2022-09-27T00:19:48.353Z,55.65
2022-09-27T00:22:16.662Z,54.78
2022-09-27T00:24:46.325Z,54.30
2022-09-27T00:27:14.642Z,53.66
2022-09-27T00:29:43.153Z,53.94
2022-09-27T00:32:11.546Z,54.44
2022-09-27T00:34:40.618Z,54.89
2022-09-27T00:37:09.134Z,54.67
2022-09-27T00:39:38.353Z,54.57
2022-09-27T00:42:11.374Z,54.29
2022-09-27T00:45:08.661Z,54.02
2022-09-27T00:47:44.449Z,53.97
2022-09-27T00:50:23.218Z,53.91
2022-09-27T00:53:00.770Z,53.85
2022-09-27T00:55:34.022Z,53.75
2022-09-27T00:58:05.693Z,53.72
2022-09-27T01:00:34.462Z,53.66
2022-09-27T01:03:07.188Z,53.75
2022-09-27T01:05:35.981Z,53.58
2022-09-27T01:08:04.329Z,53.49
2022-09-27T01:10:42.167Z,53.50
2022-09-27T01:13:21.058Z,53.35
2022-09-27T01:15:59.116Z,53.72
2022-09-27T01:18:35.861Z,54.16
2022-09-27T01:21:27.418Z,54.36
2022-09-27T01:24:28.868Z,54.57
2022-09-27T01:27:35.055Z,54.79
2022-09-27T01:30:19.721Z,54.96
2022-09-27T01:32:59.667Z,55.20
2022-09-27T01:35:35.746Z,55.20
2022-09-27T01:38:13.592Z,55.25
2022-09-27T01:40:50.585Z,55.32
2022-09-27T01:43:46.870Z,55.34
2022-09-27T01:46:23.374Z,55.36
2022-09-27T01:49:13.666Z,55.52
2022-09-27T01:51:47.098Z,55.63
2022-09-27T01:54:20.607Z,55.68
2022-09-27T01:56:55.256Z,55.50
2022-09-27T01:59:33.573Z,55.68
2022-09-27T02:02:19.953Z,55.70
2022-09-27T02:05:21.086Z,55.55
2022-09-27T02:07:59.291Z,55.76
2022-09-27T02:10:32.677Z,55.72
2022-09-27T02:13:07.800Z,55.75
2022-09-27T02:15:49.626Z,55.76
2022-09-27T02:18:37.559Z,56.02
2022-09-27T02:21:09.014Z,56.28
2022-09-27T02:23:42.866Z,56.47
2022-09-27T02:26:19.246Z,56.60
2022-09-27T02:28:53.061Z,56.95
2022-09-27T02:31:28.889Z,57.25
2022-09-27T02:34:04.068Z,57.42
2022-09-27T02:36:33.221Z,57.45
2022-09-27T02:39:01.888Z,57.43
2022-09-27T02:41:32.337Z,57.64
2022-09-27T02:44:05.644Z,57.74
2022-09-27T02:46:54.897Z,57.68
2022-09-27T02:49:43.522Z,57.99
2022-09-27T02:52:40.657Z,58.34
2022-09-27T02:55:17.588Z,58.29
2022-09-27T02:58:12.196Z,58.46
2022-09-27T03:01:08.121Z,58.80
2022-09-27T03:03:53.495Z,58.88
2022-09-27T03:06:25.203Z,58.67
2022-09-27T03:08:54.007Z,58.80
2022-09-27T03:11:22.434Z,58.92
2022-09-27T03:14:08.028Z,59.14
2022-09-27T03:16:40.374Z,59.36
2022-09-27T03:19:44.180Z,59.29
2022-09-27T03:22:28.868Z,59.36
2022-09-27T03:24:57.640Z,59.26
2022-09-27T03:27:26.074Z,59.19
2022-09-27T03:29:54.473Z,59.11
2022-09-27T03:32:23.018Z,58.69
2022-09-27T03:35:11.522Z,57.26
2022-09-27T03:37:42.106Z,56.15
2022-09-27T03:40:11.757Z,55.30
2022-09-27T03:42:40.415Z,54.32
2022-09-27T03:45:09.779Z,53.47
2022-09-27T03:47:41.920Z,52.17
2022-09-27T03:50:12.873Z,52.04
2022-09-27T03:52:44.126Z,51.04
2022-09-27T03:55:13.465Z,50.76
2022-09-27T03:57:46.712Z,50.80
2022-09-27T04:00:17.318Z,50.69
2022-09-27T04:02:46.205Z,50.71
2022-09-27T04:05:27.339Z,51.02
2022-09-27T04:08:01.540Z,50.94
2022-09-27T04:10:32.545Z,50.88
2022-09-27T04:13:00.984Z,50.78
2022-09-27T04:15:33.631Z,50.39
2022-09-27T04:18:22.161Z,50.56
2022-09-27T04:20:50.482Z,50.49
2022-09-27T04:23:21.512Z,50.38
2022-09-27T04:25:53.424Z,50.40
2022-09-27T04:28:42.076Z,50.61
2022-09-27T04:31:10.525Z,50.65
2022-09-27T04:34:10.915Z,50.80
2022-09-27T04:36:38.251Z,50.71
2022-09-27T04:39:12.494Z,50.72
2022-09-27T04:41:45.764Z,51.02
2022-09-27T04:44:15.653Z,51.27
2022-09-27T04:46:48.988Z,51.04
2022-09-27T04:49:18.017Z,51.03
2022-09-27T04:51:47.214Z,51.03
2022-09-27T04:54:17.462Z,51.16
2022-09-27T04:56:57.388Z,51.10
2022-09-27T04:59:26.209Z,51.32
2022-09-27T05:01:55.047Z,51.45
2022-09-27T05:04:48.748Z,51.49
2022-09-27T05:07:20.504Z,51.37
2022-09-27T05:09:56.985Z,51.77
2022-09-27T05:12:26.953Z,51.49
2022-09-27T05:14:59.614Z,51.40
2022-09-27T05:17:34.316Z,51.28
2022-09-27T05:20:21.818Z,50.96
2022-09-27T05:22:56.164Z,51.49
2022-09-27T05:25:27.125Z,51.43
2022-09-27T05:27:55.609Z,51.46
2022-09-27T05:30:24.038Z,51.58
2022-09-27T05:32:56.282Z,51.47
2022-09-27T05:35:45.802Z,51.34
2022-09-27T05:38:14.861Z,51.39
2022-09-27T05:40:50.452Z,51.39
2022-09-27T05:43:20.152Z,51.33
2022-09-27T05:45:48.829Z,51.66
2022-09-27T05:48:20.289Z,51.63
2022-09-27T05:50:56.747Z,51.61
2022-09-27T05:53:25.070Z,51.42
2022-09-27T05:55:55.319Z,51.54
2022-09-27T05:58:32.708Z,51.61
2022-09-27T06:01:14.319Z,51.40
2022-09-27T06:04:11.642Z,51.52
2022-09-27T06:07:06.400Z,51.59
2022-09-27T06:09:35.017Z,51.56
2022-09-27T06:12:11.365Z,52.03
2022-09-27T06:14:41.275Z,51.51
2022-09-27T06:17:30.345Z,51.31
2022-09-27T06:20:01.151Z,51.70
2022-09-27T06:22:29.753Z,51.64
2022-09-27T06:25:04.085Z,51.26
2022-09-27T06:27:38.086Z,51.44
2022-09-27T06:30:11.716Z,51.39
2022-09-27T06:32:57.589Z,50.68
2022-09-27T06:35:41.281Z,50.32
2022-09-27T06:38:13.191Z,49.79
2022-09-27T06:40:49.507Z,49.39
2022-09-27T06:43:34.198Z,49.66
2022-09-27T06:46:15.052Z,49.99
2022-09-27T06:49:06.406Z,48.85
2022-09-27T06:51:39.468Z,47.73
2022-09-27T06:54:15.915Z,47.64
2022-09-27T06:56:56.178Z,47.63
2022-09-27T06:59:49.524Z,47.90
2022-09-27T07:02:36.670Z,46.41
2022-09-27T07:05:32.418Z,46.54
2022-09-27T07:08:11.997Z,45.89
2022-09-27T07:10:41.593Z,45.49
2022-09-27T07:13:12.279Z,45.93
2022-09-27T07:15:43.490Z,44.23
2022-09-27T07:18:15.878Z,44.28
2022-09-27T07:20:44.216Z,43.75
2022-09-27T07:23:13.184Z,43.83
2022-09-27T07:25:41.573Z,43.12
2022-09-27T07:28:18.463Z,42.91
2022-09-27T07:30:56.842Z,41.95
2022-09-27T07:33:25.615Z,42.35
2022-09-27T07:35:54.034Z,42.09
2022-09-27T07:38:22.495Z,41.37
2022-09-27T07:40:51.715Z,40.49
2022-09-27T07:43:20.811Z,41.73
2022-09-27T07:45:51.132Z,41.85
2022-09-27T07:48:54.942Z,40.08
2022-09-27T07:51:41.737Z,40.64
2022-09-27T07:54:28.223Z,40.16
2022-09-27T07:57:08.705Z,39.48
2022-09-27T07:59:47.078Z,39.98
2022-09-27T08:02:19.696Z,40.25
2022-09-27T08:04:49.602Z,40.51
2022-09-27T08:07:18.652Z,39.59
2022-09-27T08:09:50.908Z,39.69
2022-09-27T08:12:21.601Z,40.23
2022-09-27T08:14:51.346Z,40.75
2022-09-27T08:17:21.092Z,40.86
2022-09-27T08:20:10.417Z,41.12
2022-09-27T08:23:07.224Z,41.86
2022-09-27T08:25:43.596Z,40.98
2022-09-27T08:28:28.438Z,39.85
2022-09-27T08:31:02.664Z,39.35
2022-09-27T08:33:34.912Z,39.28
2022-09-27T08:36:05.607Z,38.63
2022-09-27T08:38:33.924Z,38.91
2022-09-27T08:41:09.477Z,38.00
2022-09-27T08:43:47.549Z,37.64
2022-09-27T08:46:27.120Z,38.45
2022-09-27T08:49:07.092Z,38.23
2022-09-27T08:51:37.636Z,37.94
2022-09-27T08:54:09.406Z,39.05
2022-09-27T08:56:38.906Z,37.87
2022-09-27T08:59:14.826Z,37.38
2022-09-27T09:01:44.314Z,37.99
2022-09-27T09:04:29.831Z,36.67
2022-09-27T09:07:09.790Z,36.71
2022-09-27T09:09:45.394Z,36.53
2022-09-27T09:12:48.192Z,36.72
2022-09-27T09:15:55.404Z,36.97
2022-09-27T09:18:40.389Z,39.41
2022-09-27T09:21:27.806Z,38.41
2022-09-27T09:24:19.008Z,38.54
2022-09-27T09:26:55.245Z,38.01
2022-09-27T09:29:37.794Z,37.79
2022-09-27T09:32:21.332Z,39.20
2022-09-27T09:34:55.945Z,38.04
2022-09-27T09:37:36.627Z,37.55
2022-09-27T09:40:17.643Z,37.37
2022-09-27T09:42:52.221Z,35.81
2022-09-27T09:45:26.331Z,36.85
2022-09-27T09:48:01.997Z,36.58
2022-09-27T09:50:35.349Z,36.92
2022-09-27T09:53:15.260Z,35.53
2022-09-27T09:55:49.710Z,37.22
2022-09-27T09:58:25.258Z,36.06
2022-09-27T10:01:02.587Z,36.45
2022-09-27T10:03:31.034Z,35.40
2022-09-27T10:05:59.321Z,35.38
2022-09-27T10:08:29.154Z,36.51
2022-09-27T10:11:23.417Z,36.14
2022-09-27T10:13:59.553Z,36.77
2022-09-27T10:16:29.285Z,37.37
2022-09-27T10:19:04.099Z,38.34
2022-09-27T10:21:35.080Z,37.84
2022-09-27T10:24:17.308Z,37.36
2022-09-27T10:27:09.371Z,37.87
2022-09-27T10:29:40.283Z,38.58
2022-09-27T10:32:25.490Z,38.07
2022-09-27T10:35:32.837Z,35.89
2022-09-27T10:38:22.755Z,37.20
2022-09-27T10:40:56.148Z,36.20
2022-09-27T10:43:30.673Z,35.73
2022-09-27T10:46:17.514Z,35.99
2022-09-27T10:48:49.280Z,35.70
2022-09-27T10:51:26.372Z,37.14
2022-09-27T10:53:58.799Z,35.81
2022-09-27T10:56:34.989Z,35.13
2022-09-27T10:59:05.555Z,36.46
2022-09-27T11:01:45.603Z,36.18
2022-09-27T11:04:40.290Z,35.84
2022-09-27T11:07:20.210Z,36.98
2022-09-27T11:10:03.461Z,38.35
2022-09-27T11:12:36.847Z,38.02
2022-09-27T11:15:08.421Z,39.11
2022-09-27T11:17:51.197Z,38.42
2022-09-27T11:20:35.910Z,38.28
2022-09-27T11:23:34.008Z,37.41
2022-09-27T11:26:31.033Z,37.60
2022-09-27T11:29:24.238Z,37.19
2022-09-27T11:32:35.845Z,39.68
2022-09-27T11:35:15.950Z,39.13
2022-09-27T11:37:53.332Z,38.74
2022-09-27T11:40:32.908Z,37.86
2022-09-27T11:43:35.372Z,38.03
2022-09-27T11:46:24.611Z,38.17
2022-09-27T11:49:29.608Z,37.04
2022-09-27T11:52:30.758Z,36.98
2022-09-27T11:55:21.684Z,39.81
2022-09-27T11:58:01.076Z,38.31
2022-09-27T12:00:43.629Z,37.04
2022-09-27T12:03:53.537Z,36.34
2022-09-27T12:06:35.088Z,37.03
2022-09-27T12:09:08.582Z,37.84
2022-09-27T12:11:42.715Z,35.64
2022-09-27T12:14:24.603Z,36.66
2022-09-27T12:16:57.270Z,36.70
2022-09-27T12:19:31.743Z,35.71
2022-09-27T12:22:11.313Z,35.60
2022-09-27T12:24:43.610Z,34.86
2022-09-27T12:27:38.624Z,34.68
2022-09-27T12:30:13.634Z,34.51
2022-09-27T12:32:52.047Z,34.72
2022-09-27T12:35:26.826Z,34.84
2022-09-27T12:38:00.566Z,34.85
2022-09-27T12:40:34.376Z,35.81
2022-09-27T12:43:10.118Z,35.14
2022-09-27T12:46:16.346Z,35.08
2022-09-27T12:48:54.858Z,33.88
2022-09-27T12:51:25.813Z,34.09
2022-09-27T12:54:25.350Z,35.81
2022-09-27T12:57:03.651Z,35.55
2022-09-27T12:59:48.215Z,35.97
2022-09-27T13:03:11.083Z,35.18
2022-09-27T13:06:29.044Z,36.12
2022-09-27T13:09:20.921Z,34.48
2022-09-27T13:12:02.399Z,34.65
2022-09-27T13:14:36.202Z,33.96
2022-09-27T13:17:05.517Z,33.68
2022-09-27T13:19:45.703Z,34.43
2022-09-27T13:22:38.117Z,35.16
2022-09-27T13:25:55.475Z,35.04
2022-09-27T13:29:02.309Z,36.46
2022-09-27T13:32:15.267Z,34.69
2022-09-27T13:35:13.819Z,34.04
2022-09-27T13:37:53.226Z,33.13
2022-09-27T13:40:31.949Z,33.72
2022-09-27T13:43:42.768Z,34.12
2022-09-27T13:46:27.980Z,33.81
2022-09-27T13:49:03.776Z,32.97
2022-09-27T13:52:03.265Z,33.26
2022-09-27T13:54:41.968Z,32.86
2022-09-27T13:57:45.277Z,32.96
2022-09-27T14:00:22.991Z,33.25
2022-09-27T14:03:02.738Z,33.58
2022-09-27T14:05:37.798Z,33.82
2022-09-27T14:08:08.537Z,33.23
2022-09-27T14:10:37.678Z,32.74
2022-09-27T14:13:08.014Z,32.62
2022-09-27T14:15:50.336Z,33.76
2022-09-27T14:18:20.008Z,32.61
2022-09-27T14:20:52.261Z,31.69
2022-09-27T14:23:52.237Z,32.82
2022-09-27T14:26:25.139Z,33.26
2022-09-27T14:28:54.267Z,33.76
2022-09-27T14:31:29.921Z,34.26
2022-09-27T14:34:21.039Z,32.84
2022-09-27T14:37:07.785Z,32.86
2022-09-27T14:39:55.773Z,32.32
2022-09-27T14:42:36.606Z,32.42
2022-09-27T14:45:15.875Z,32.42
2022-09-27T14:47:49.295Z,33.24
2022-09-27T14:50:24.508Z,32.81
2022-09-27T14:52:55.857Z,34.34
2022-09-27T14:55:27.716Z,32.93
2022-09-27T14:57:58.126Z,32.89
2022-09-27T15:00:31.169Z,32.40
2022-09-27T15:03:04.192Z,33.90
2022-09-27T15:05:34.542Z,32.94
2022-09-27T15:08:05.977Z,33.35
2022-09-27T15:10:36.604Z,33.34
2022-09-27T15:13:07.033Z,33.68
2022-09-27T15:15:38.322Z,34.75
2022-09-27T15:18:40.906Z,34.76
2022-09-27T15:21:10.725Z,35.14
2022-09-27T15:23:41.192Z,35.16
2022-09-27T15:26:14.224Z,35.05
2022-09-27T15:28:48.948Z,33.97
2022-09-27T15:31:18.307Z,34.44
2022-09-27T15:33:56.307Z,34.56
2022-09-27T15:36:51.926Z,34.90
2022-09-27T15:39:22.284Z,35.29
2022-09-27T15:42:08.977Z,35.94
2022-09-27T15:44:40.583Z,35.22
2022-09-27T15:47:41.528Z,35.39
2022-09-27T15:50:41.212Z,35.52
2022-09-27T15:53:10.621Z,36.95
2022-09-27T15:55:43.491Z,36.58
2022-09-27T15:58:16.997Z,35.89
2022-09-27T16:00:55.162Z,36.92
2022-09-27T16:03:23.837Z,36.55
2022-09-27T16:05:56.280Z,37.38
2022-09-27T16:08:24.621Z,36.91
2022-09-27T16:10:55.145Z,37.50
2022-09-27T16:13:23.472Z,37.50
2022-09-27T16:15:51.964Z,37.69
2022-09-27T16:18:20.219Z,37.21
2022-09-27T16:20:48.497Z,37.15
2022-09-27T16:23:18.423Z,37.45
2022-09-27T16:25:46.649Z,37.57
2022-09-27T16:28:14.853Z,38.43
2022-09-27T16:30:43.076Z,38.91
2022-09-27T16:33:11.481Z,39.20
2022-09-27T16:35:42.063Z,38.97
2022-09-27T16:38:11.280Z,38.74
2022-09-27T16:40:40.987Z,38.88
2022-09-27T16:43:09.259Z,39.74
2022-09-27T16:45:37.609Z,40.33
2022-09-27T16:48:05.956Z,40.78
2022-09-27T16:50:51.298Z,41.16
2022-09-27T16:53:19.572Z,41.26
2022-09-27T16:55:50.212Z,41.15
2022-09-27T16:58:18.429Z,41.34
2022-09-27T17:00:46.609Z,40.77
2022-09-27T17:03:14.931Z,40.80
2022-09-27T17:05:43.165Z,41.41
2022-09-27T17:08:11.476Z,41.39
2022-09-27T17:10:41.360Z,41.83
2022-09-27T17:13:11.035Z,41.54
2022-09-27T17:15:39.630Z,41.55
2022-09-27T17:18:07.914Z,41.57
2022-09-27T17:20:36.078Z,42.03
2022-09-27T17:23:04.628Z,41.66
2022-09-27T17:25:33.153Z,41.80
2022-09-27T17:28:01.437Z,41.76
2022-09-27T17:30:32.049Z,41.84
2022-09-27T17:33:00.332Z,42.55
2022-09-27T17:35:28.513Z,42.47
2022-09-27T17:37:56.746Z,42.48
2022-09-27T17:40:25.032Z,42.35
2022-09-27T17:42:53.459Z,42.17
2022-09-27T17:45:21.725Z,42.52
2022-09-27T17:48:12.897Z,42.48
2022-09-27T17:50:41.785Z,42.86
2022-09-27T17:53:09.968Z,42.99
2022-09-27T17:55:38.200Z,43.53
2022-09-27T17:58:06.499Z,43.22
2022-09-27T18:00:34.973Z,43.24
2022-09-27T18:03:04.606Z,43.77
2022-09-27T18:05:33.099Z,44.04
2022-09-27T18:08:01.683Z,44.13
2022-09-27T18:10:29.941Z,44.25
2022-09-27T18:12:58.815Z,44.59
2022-09-27T18:15:27.374Z,44.49
2022-09-27T18:17:58.305Z,44.67
2022-09-27T18:20:28.154Z,44.60
2022-09-27T18:22:57.308Z,44.91
2022-09-27T18:25:25.643Z,45.17
2022-09-27T18:27:55.972Z,45.54
2022-09-27T18:30:24.437Z,45.53
2022-09-27T18:32:53.839Z,45.76
2022-09-27T18:35:24.274Z,46.03
2022-09-27T18:37:54.516Z,46.38
2022-09-27T18:40:44.546Z,46.31
2022-09-27T18:43:11.044Z,46.34
2022-09-27T18:45:39.909Z,47.22
2022-09-27T18:48:08.236Z,47.49
2022-09-27T18:50:37.682Z,47.64
2022-09-27T18:53:08.378Z,47.66
2022-09-27T18:55:38.526Z,47.47
2022-09-27T18:58:07.058Z,47.50
2022-09-27T19:00:35.437Z,47.34
2022-09-27T19:03:04.169Z,48.44
2022-09-27T19:05:32.510Z,49.07
2022-09-27T19:08:00.690Z,49.52
2022-09-27T19:10:30.444Z,49.46
2022-09-27T19:12:58.651Z,49.61
2022-09-27T19:15:26.920Z,50.94
2022-09-27T19:17:55.488Z,51.04
2022-09-27T19:20:23.659Z,50.72
2022-09-27T19:22:51.810Z,50.12
2022-09-27T19:25:20.186Z,49.99
2022-09-27T19:27:49.870Z,49.30
2022-09-27T19:30:18.751Z,48.85
2022-09-27T19:32:47.461Z,48.61
2022-09-27T19:35:16.052Z,48.35
2022-09-27T19:37:44.352Z,48.16
2022-09-27T19:40:12.558Z,47.91
2022-09-27T19:42:40.786Z,47.70
2022-09-27T19:45:12.410Z,47.47
2022-09-27T19:47:40.640Z,47.54
2022-09-27T19:50:09.774Z,47.47
2022-09-27T19:52:38.820Z,47.21
2022-09-27T19:55:08.156Z,47.39
2022-09-27T19:57:36.441Z,47.37
2022-09-27T20:00:06.556Z,47.12
2022-09-27T20:02:36.329Z,47.15
2022-09-27T20:05:04.927Z,47.18
2022-09-27T20:07:35.081Z,46.99
2022-09-27T20:10:03.397Z,46.94
2022-09-27T20:12:31.721Z,46.98
2022-09-27T20:14:59.957Z,46.62
2022-09-27T20:17:32.073Z,46.56
2022-09-27T20:20:01.925Z,46.71
2022-09-27T20:22:30.203Z,46.90
2022-09-27T20:24:58.664Z,47.02
2022-09-27T20:27:26.836Z,46.87
2022-09-27T20:29:55.169Z,47.20
2022-09-27T20:32:27.732Z,46.97
2022-09-27T20:34:56.586Z,46.86
2022-09-27T20:37:26.647Z,46.58
2022-09-27T20:39:54.902Z,46.64
2022-09-27T20:42:23.306Z,46.83
2022-09-27T20:44:54.300Z,46.91
2022-09-27T20:47:23.127Z,47.49
2022-09-27T20:49:51.481Z,47.63
2022-09-27T20:52:20.841Z,48.03
2022-09-27T20:54:50.413Z,48.08
2022-09-27T20:57:27.833Z,48.07
2022-09-27T21:00:10.153Z,48.51
2022-09-27T21:02:38.461Z,48.28
2022-09-27T21:05:07.426Z,48.28
2022-09-27T21:07:35.588Z,48.21
2022-09-27T21:10:06.029Z,48.36
2022-09-27T21:12:34.250Z,48.37
2022-09-27T21:15:02.513Z,48.56
2022-09-27T21:17:30.786Z,48.69
2022-09-27T21:19:58.947Z,48.98
2022-09-27T21:22:27.266Z,48.84
2022-09-27T21:24:56.485Z,48.81
2022-09-27T21:27:26.246Z,49.04
2022-09-27T21:29:54.452Z,49.01
2022-09-27T21:32:22.686Z,49.26
2022-09-27T21:34:51.011Z,49.53
2022-09-27T21:37:19.271Z,49.50
2022-09-27T21:39:47.418Z,49.73
2022-09-27T21:42:15.789Z,50.24
2022-09-27T21:44:45.630Z,50.47
2022-09-27T21:47:14.710Z,50.80
2022-09-27T21:49:42.850Z,51.16
2022-09-27T21:52:11.149Z,51.23
2022-09-27T21:54:39.383Z,51.80
2022-09-27T21:57:07.688Z,51.88
2022-09-27T21:59:35.840Z,52.38
2022-09-27T22:02:05.624Z,52.56
2022-09-27T22:04:33.843Z,53.05
2022-09-27T22:07:02.065Z,53.25
2022-09-27T22:09:30.306Z,53.45
2022-09-27T22:11:58.616Z,53.69
2022-09-27T22:14:26.933Z,53.98
2022-09-27T22:16:55.249Z,54.00
2022-09-27T22:19:24.875Z,54.19
2022-09-27T22:21:54.092Z,54.20
2022-09-27T22:24:22.417Z,54.48
2022-09-27T22:26:53.898Z,54.59
2022-09-27T22:29:22.397Z,54.51
2022-09-27T22:31:50.654Z,54.52
2022-09-27T22:34:29.032Z,54.59
2022-09-27T22:37:00.904Z,54.57
2022-09-27T22:39:29.466Z,54.54
2022-09-27T22:41:57.749Z,54.31
2022-09-27T22:44:26.014Z,54.38
2022-09-27T22:46:54.424Z,54.49
2022-09-27T22:49:22.941Z,54.38
2022-09-27T22:51:51.464Z,54.51
2022-09-27T22:54:21.276Z,54.36
2022-09-27T22:56:57.304Z,54.54
2022-09-27T22:59:26.331Z,54.58
2022-09-27T23:01:54.859Z,54.73
2022-09-27T23:04:23.111Z,54.81
2022-09-27T23:06:51.858Z,54.97
2022-09-27T23:09:22.081Z,55.09
2022-09-27T23:11:50.442Z,55.58
2022-09-27T23:14:21.087Z,55.48
2022-09-27T23:16:49.517Z,55.74
2022-09-27T23:19:20.124Z,55.98
2022-09-27T23:21:48.546Z,55.84
2022-09-27T23:24:17.155Z,56.05
2022-09-27T23:27:06.793Z,55.89
2022-09-27T23:29:35.044Z,56.14
2022-09-27T23:32:04.333Z,56.24
2022-09-27T23:34:32.887Z,56.11
2022-09-27T23:37:01.116Z,56.37
2022-09-27T23:39:29.827Z,56.29
2022-09-27T23:41:59.482Z,56.18
2022-09-27T23:44:27.865Z,56.30
2022-09-27T23:47:00.399Z,56.00
2022-09-27T23:49:29.318Z,56.09
2022-09-27T23:51:57.565Z,56.18
2022-09-27T23:54:25.879Z,56.08
2022-09-27T23:56:54.187Z,56.13
2022-09-27T23:59:24.881Z,56.09
